Terminal Aerodrome Forecast
Issued by NWS

Home | Current Version | Previous Version | Text Only | Print | Product List | Glossary Off
Versions: 1 2 3 4 5 6 7 8 9 10 11 12 13 14 15 16 17 18 19 20 21 22 23 24 25 26 27 28 29 30 31 32

000
FTUS43 KLOT 291727
TAFORD
TAF
KORD 291727Z 2918/3024 05008KT P6SM VCTS SCT025CB BKN060
      TEMPO 2918/2922 VRB12G18KT 3SM -TSRA BKN025CB
     FM292200 06010KT P6SM VCSH BKN040
     FM300100 05007KT P6SM VCSH FEW020 BKN045
     FM301500 07010KT P6SM BKN045=

USA.gov is the U.S. government's official web portal to all federal, state and local government web resources and services.